sensor_id;sensor_type;location;lat;lon;timestamp;pressure;altitude;pressure_sealevel;temperature;humidity
30682;BME280;17439;48.092;11.842;2023-04-16T00:00:16;95189.59;;;7.58;74.73
30682;BME280;17439;48.092;11.842;2023-04-16T00:02:42;95192.28;;;7.58;74.72
30682;BME280;17439;48.092;11.842;2023-04-16T00:05:09;95195.81;;;7.59;74.77
30682;BME280;17439;48.092;11.842;2023-04-16T00:07:36;95200.97;;;7.55;74.53
30682;BME280;17439;48.092;11.842;2023-04-16T00:10:04;95196.72;;;7.54;74.50
30682;BME280;17439;48.092;11.842;2023-04-16T00:12:31;95190.00;;;7.52;74.36
30682;BME280;17439;48.092;11.842;2023-04-16T00:14:58;95193.00;;;7.50;74.32
30682;BME280;17439;48.092;11.842;2023-04-16T00:17:25;95200.59;;;7.48;74.31
30682;BME280;17439;48.092;11.842;2023-04-16T00:19:52;95197.41;;;7.46;74.27
30682;BME280;17439;48.092;11.842;2023-04-16T00:22:19;95203.38;;;7.43;74.14
30682;BME280;17439;48.092;11.842;2023-04-16T00:24:46;95196.97;;;7.39;74.27
30682;BME280;17439;48.092;11.842;2023-04-16T00:27:13;95188.38;;;7.37;74.18
30682;BME280;17439;48.092;11.842;2023-04-16T00:29:40;95201.63;;;7.33;74.13
30682;BME280;17439;48.092;11.842;2023-04-16T00:32:07;95197.75;;;7.25;73.97
30682;BME280;17439;48.092;11.842;2023-04-16T00:34:34;95193.94;;;7.26;74.38
30682;BME280;17439;48.092;11.842;2023-04-16T00:37:01;95196.94;;;7.25;74.35
30682;BME280;17439;48.092;11.842;2023-04-16T00:39:28;95192.34;;;7.25;74.43
30682;BME280;17439;48.092;11.842;2023-04-16T00:41:54;95187.03;;;7.20;74.51
30682;BME280;17439;48.092;11.842;2023-04-16T00:44:21;95194.03;;;7.21;74.56
30682;BME280;17439;48.092;11.842;2023-04-16T00:46:48;95190.84;;;7.19;74.72
30682;BME280;17439;48.092;11.842;2023-04-16T00:49:14;95190.84;;;7.19;74.71
30682;BME280;17439;48.092;11.842;2023-04-16T00:51:41;95196.53;;;7.18;74.67
30682;BME280;17439;48.092;11.842;2023-04-16T00:54:08;95195.69;;;7.17;74.93
30682;BME280;17439;48.092;11.842;2023-04-16T00:56:35;95194.13;;;7.16;74.81
30682;BME280;17439;48.092;11.842;2023-04-16T00:59:02;95186.63;;;7.13;74.03
30682;BME280;17439;48.092;11.842;2023-04-16T01:01:29;95189.31;;;7.13;74.77
30682;BME280;17439;48.092;11.842;2023-04-16T01:03:56;95191.72;;;7.15;74.65
30682;BME280;17439;48.092;11.842;2023-04-16T01:06:25;95192.50;;;7.15;74.82
30682;BME280;17439;48.092;11.842;2023-04-16T01:08:51;95197.69;;;7.12;74.54
30682;BME280;17439;48.092;11.842;2023-04-16T01:11:18;95196.09;;;7.11;74.57
30682;BME280;17439;48.092;11.842;2023-04-16T01:13:45;95193.09;;;7.12;74.73
30682;BME280;17439;48.092;11.842;2023-04-16T01:16:11;95193.38;;;7.11;74.70
30682;BME280;17439;48.092;11.842;2023-04-16T01:18:38;95195.78;;;7.12;74.78
30682;BME280;17439;48.092;11.842;2023-04-16T01:21:05;95193.09;;;7.12;75.03
30682;BME280;17439;48.092;11.842;2023-04-16T01:23:32;95200.59;;;7.15;75.21
30682;BME280;17439;48.092;11.842;2023-04-16T01:26:00;95203.28;;;7.15;74.96
30682;BME280;17439;48.092;11.842;2023-04-16T01:28:27;95202.22;;;7.16;75.08
30682;BME280;17439;48.092;11.842;2023-04-16T01:30:54;95213.50;;;7.18;75.10
30682;BME280;17439;48.092;11.842;2023-04-16T01:33:44;95206.72;;;7.21;75.06
30682;BME280;17439;48.092;11.842;2023-04-16T01:36:11;95208.59;;;7.20;75.14
30682;BME280;17439;48.092;11.842;2023-04-16T01:38:37;95199.13;;;7.23;74.97
30682;BME280;17439;48.092;11.842;2023-04-16T01:41:04;95212.31;;;7.24;75.02
30682;BME280;17439;48.092;11.842;2023-04-16T01:43:31;95209.31;;;7.26;75.16
30682;BME280;17439;48.092;11.842;2023-04-16T01:46:28;95208.53;;;7.25;73.37
30682;BME280;17439;48.092;11.842;2023-04-16T01:48:56;95209.03;;;7.28;75.12
30682;BME280;17439;48.092;11.842;2023-04-16T01:51:23;95208.53;;;7.25;75.00
30682;BME280;17439;48.092;11.842;2023-04-16T01:53:50;95211.44;;;7.29;75.16
30682;BME280;17439;48.092;11.842;2023-04-16T01:56:17;95202.56;;;7.29;74.92
30682;BME280;17439;48.092;11.842;2023-04-16T01:58:44;95207.13;;;7.28;74.92
30682;BME280;17439;48.092;11.842;2023-04-16T02:01:12;95206.34;;;7.28;74.79
30682;BME280;17439;48.092;11.842;2023-04-16T02:03:39;95207.41;;;7.26;73.71
30682;BME280;17439;48.092;11.842;2023-04-16T02:06:06;95200.94;;;7.28;75.02
30682;BME280;17439;48.092;11.842;2023-04-16T02:08:34;95209.03;;;7.28;74.98
30682;BME280;17439;48.092;11.842;2023-04-16T02:11:01;95220.31;;;7.30;75.03
30682;BME280;17439;48.092;11.842;2023-04-16T02:13:28;95210.63;;;7.29;75.10
30682;BME280;17439;48.092;11.842;2023-04-16T02:15:55;95214.31;;;7.33;75.07
30682;BME280;17439;48.092;11.842;2023-04-16T02:18:33;95215.41;;;7.32;75.11
30682;BME280;17439;48.092;11.842;2023-04-16T02:21:00;95217.03;;;7.33;74.96
30682;BME280;17439;48.092;11.842;2023-04-16T02:23:26;95224.03;;;7.34;75.05
30682;BME280;17439;48.092;11.842;2023-04-16T02:25:56;95214.81;;;7.35;75.25
30682;BME280;17439;48.092;11.842;2023-04-16T02:28:22;95210.25;;;7.35;75.00
30682;BME280;17439;48.092;11.842;2023-04-16T02:30:49;95208.34;;;7.36;75.21
30682;BME280;17439;48.092;11.842;2023-04-16T02:33:17;95213.03;;;7.30;73.49
30682;BME280;17439;48.092;11.842;2023-04-16T02:35:53;95215.34;;;7.37;75.04
30682;BME280;17439;48.092;11.842;2023-04-16T02:38:20;95219.91;;;7.36;74.93
30682;BME280;17439;48.092;11.842;2023-04-16T02:40:47;95227.72;;;7.38;75.08
30682;BME280;17439;48.092;11.842;2023-04-16T02:43:15;95220.44;;;7.38;75.19
30682;BME280;17439;48.092;11.842;2023-04-16T02:45:41;95222.03;;;7.39;75.10
30682;BME280;17439;48.092;11.842;2023-04-16T02:48:08;95220.66;;;7.42;75.18
30682;BME280;17439;48.092;11.842;2023-04-16T02:50:34;95229.81;;;7.41;75.09
30682;BME280;17439;48.092;11.842;2023-04-16T02:53:01;95230.94;;;7.40;74.94
30682;BME280;17439;48.092;11.842;2023-04-16T02:55:28;95227.94;;;7.41;75.00
30682;BME280;17439;48.092;11.842;2023-04-16T02:57:55;95227.13;;;7.41;74.86
30682;BME280;17439;48.092;11.842;2023-04-16T03:00:21;95227.13;;;7.41;74.81
30682;BME280;17439;48.092;11.842;2023-04-16T03:02:48;95238.22;;;7.39;74.65
30682;BME280;17439;48.092;11.842;2023-04-16T03:05:15;95237.63;;;7.42;74.71
30682;BME280;17439;48.092;11.842;2023-04-16T03:07:42;95231.16;;;7.43;74.65
30682;BME280;17439;48.092;11.842;2023-04-16T03:10:09;95237.34;;;7.44;74.66
30682;BME280;17439;48.092;11.842;2023-04-16T03:12:35;95241.94;;;7.43;74.55
30682;BME280;17439;48.092;11.842;2023-04-16T03:15:05;95247.03;;;7.45;74.69
30682;BME280;17439;48.092;11.842;2023-04-16T03:17:32;95241.13;;;7.43;74.76
30682;BME280;17439;48.092;11.842;2023-04-16T03:19:59;95240.63;;;7.41;74.30
30682;BME280;17439;48.092;11.842;2023-04-16T03:22:26;95237.91;;;7.41;74.60
30682;BME280;17439;48.092;11.842;2023-04-16T03:24:52;95246.59;;;7.38;74.46
30682;BME280;17439;48.092;11.842;2023-04-16T03:27:19;95242.31;;;7.37;74.27
30682;BME280;17439;48.092;11.842;2023-04-16T03:29:46;95241.50;;;7.36;74.65
30682;BME280;17439;48.092;11.842;2023-04-16T03:32:13;95246.09;;;7.36;74.65
30682;BME280;17439;48.092;11.842;2023-04-16T03:34:40;95259.88;;;7.34;74.59
30682;BME280;17439;48.092;11.842;2023-04-16T03:37:07;95256.88;;;7.36;74.56
30682;BME280;17439;48.092;11.842;2023-04-16T03:39:33;95257.69;;;7.36;74.77
30682;BME280;17439;48.092;11.842;2023-04-16T03:42:00;95256.88;;;7.36;74.50
30682;BME280;17439;48.092;11.842;2023-04-16T03:44:27;95251.19;;;7.37;74.74
30682;BME280;17439;48.092;11.842;2023-04-16T03:46:54;95259.59;;;7.36;74.74
30682;BME280;17439;48.092;11.842;2023-04-16T03:49:21;95268.16;;;7.38;74.76
30682;BME280;17439;48.092;11.842;2023-04-16T03:51:47;95263.06;;;7.36;74.63
30682;BME280;17439;48.092;11.842;2023-04-16T03:54:14;95262.78;;;7.38;74.84
30682;BME280;17439;48.092;11.842;2023-04-16T03:56:46;95276.25;;;7.38;74.76
30682;BME280;17439;48.092;11.842;2023-04-16T03:59:13;95272.47;;;7.39;74.66
30682;BME280;17439;48.092;11.842;2023-04-16T04:01:40;95269.78;;;7.39;74.92
30682;BME280;17439;48.092;11.842;2023-04-16T04:04:06;95270.09;;;7.37;74.34
30682;BME280;17439;48.092;11.842;2023-04-16T04:06:35;95267.38;;;7.37;74.45
30682;BME280;17439;48.092;11.842;2023-04-16T04:09:02;95272.47;;;7.39;74.56
30682;BME280;17439;48.092;11.842;2023-04-16T04:11:29;95263.91;;;7.37;74.45
30682;BME280;17439;48.092;11.842;2023-04-16T04:13:56;95272.97;;;7.41;74.91
30682;BME280;17439;48.092;11.842;2023-04-16T04:16:22;95267.88;;;7.39;74.74
30682;BME280;17439;48.092;11.842;2023-04-16T04:18:49;95269.00;;;7.38;74.43
30682;BME280;17439;48.092;11.842;2023-04-16T04:21:16;95263.91;;;7.37;74.47
30682;BME280;17439;48.092;11.842;2023-04-16T04:23:42;95268.16;;;7.38;74.62
30682;BME280;17439;48.092;11.842;2023-04-16T04:26:11;95268.47;;;7.36;74.68
30682;BME280;17439;48.092;11.842;2023-04-16T04:28:38;95267.69;;;7.36;74.37
30682;BME280;17439;48.092;11.842;2023-04-16T04:31:05;95271.16;;;7.36;74.58
30682;BME280;17439;48.092;11.842;2023-04-16T04:33:32;95273.06;;;7.36;74.60
30682;BME280;17439;48.092;11.842;2023-04-16T04:35:58;95274.69;;;7.37;74.69
30682;BME280;17439;48.092;11.842;2023-04-16T04:38:27;95276.16;;;7.29;71.84
30682;BME280;17439;48.092;11.842;2023-04-16T04:40:53;95277.66;;;7.35;74.63
30682;BME280;17439;48.092;11.842;2023-04-16T04:43:22;95283.06;;;7.35;74.67
30682;BME280;17439;48.092;11.842;2023-04-16T04:45:49;95294.34;;;7.37;74.76
30682;BME280;17439;48.092;11.842;2023-04-16T04:48:16;95292.75;;;7.36;74.85
30682;BME280;17439;48.092;11.842;2023-04-16T04:50:44;95295.16;;;7.38;74.77
30682;BME280;17439;48.092;11.842;2023-04-16T04:53:11;95298.66;;;7.38;74.72
30682;BME280;17439;48.092;11.842;2023-04-16T04:55:38;95300.25;;;7.39;74.79
30682;BME280;17439;48.092;11.842;2023-04-16T04:58:05;95304.56;;;7.40;75.05
30682;BME280;17439;48.092;11.842;2023-04-16T05:00:33;95304.84;;;7.39;74.64
30682;BME280;17439;48.092;11.842;2023-04-16T05:03:05;95309.66;;;7.42;74.53
30682;BME280;17439;48.092;11.842;2023-04-16T05:05:32;95308.34;;;7.39;74.71
30682;BME280;17439;48.092;11.842;2023-04-16T05:07:59;95308.03;;;7.41;74.99
30682;BME280;17439;48.092;11.842;2023-04-16T05:10:26;95306.66;;;7.43;75.31
30682;BME280;17439;48.092;11.842;2023-04-16T05:12:52;95321.47;;;7.46;75.30
30682;BME280;17439;48.092;11.842;2023-04-16T05:15:19;95327.38;;;7.48;75.39
30682;BME280;17439;48.092;11.842;2023-04-16T05:17:46;95324.38;;;7.50;75.33
30682;BME280;17439;48.092;11.842;2023-04-16T05:20:13;95326.50;;;7.53;75.56
30682;BME280;17439;48.092;11.842;2023-04-16T05:22:39;95327.28;;;7.53;75.58
30682;BME280;17439;48.092;11.842;2023-04-16T05:25:06;95336.09;;;7.59;75.76
30682;BME280;17439;48.092;11.842;2023-04-16T05:27:33;95333.63;;;7.62;75.79
30682;BME280;17439;48.092;11.842;2023-04-16T05:29:59;95335.22;;;7.63;75.67
30682;BME280;17439;48.092;11.842;2023-04-16T05:32:26;95328.91;;;7.68;75.67
30682;BME280;17439;48.092;11.842;2023-04-16T05:34:52;95332.94;;;7.71;75.73
30682;BME280;17439;48.092;11.842;2023-04-16T05:37:19;95342.84;;;7.75;75.77
30682;BME280;17439;48.092;11.842;2023-04-16T05:39:46;95345.75;;;7.79;75.59
30682;BME280;17439;48.092;11.842;2023-04-16T05:42:12;95348.16;;;7.80;75.35
30682;BME280;17439;48.092;11.842;2023-04-16T05:44:39;95347.78;;;7.87;75.96
30682;BME280;17439;48.092;11.842;2023-04-16T05:47:06;95349.28;;;7.93;76.19
30682;BME280;17439;48.092;11.842;2023-04-16T05:49:33;95353.00;;;7.97;76.31
30682;BME280;17439;48.092;11.842;2023-04-16T05:51:59;95351.81;;;8.04;76.32
30682;BME280;17439;48.092;11.842;2023-04-16T05:54:26;95353.34;;;8.10;76.25
30682;BME280;17439;48.092;11.842;2023-04-16T05:56:52;95353.53;;;8.13;75.76
30682;BME280;17439;48.092;11.842;2023-04-16T05:59:19;95351.84;;;8.17;75.56
30682;BME280;17439;48.092;11.842;2023-04-16T06:01:46;95351.53;;;8.19;75.63
30682;BME280;17439;48.092;11.842;2023-04-16T06:04:12;95354.66;;;8.26;76.02
30682;BME280;17439;48.092;11.842;2023-04-16T06:06:39;95350.88;;;8.27;75.66
30682;BME280;17439;48.092;11.842;2023-04-16T06:09:06;95357.16;;;8.36;76.38
30682;BME280;17439;48.092;11.842;2023-04-16T06:11:33;95356.53;;;8.45;76.18
30682;BME280;17439;48.092;11.842;2023-04-16T06:14:01;95355.00;;;8.52;76.21
30682;BME280;17439;48.092;11.842;2023-04-16T06:16:28;95362.22;;;8.57;75.62
30682;BME280;17439;48.092;11.842;2023-04-16T06:18:55;95370.44;;;8.66;75.73
30682;BME280;17439;48.092;11.842;2023-04-16T06:21:22;95358.00;;;8.65;73.84
30682;BME280;17439;48.092;11.842;2023-04-16T06:23:48;95358.13;;;8.74;74.87
30682;BME280;17439;48.092;11.842;2023-04-16T06:26:15;95363.13;;;8.80;74.86
30682;BME280;17439;48.092;11.842;2023-04-16T06:28:41;95363.63;;;8.82;74.10
30682;BME280;17439;48.092;11.842;2023-04-16T06:31:08;95363.81;;;8.86;73.78
30682;BME280;17439;48.092;11.842;2023-04-16T06:33:35;95363.31;;;8.84;73.54
30682;BME280;17439;48.092;11.842;2023-04-16T06:36:01;95372.72;;;8.86;73.94
30682;BME280;17439;48.092;11.842;2023-04-16T06:38:28;95368.72;;;8.84;73.51
30682;BME280;17439;48.092;11.842;2023-04-16T06:40:55;95367.13;;;8.83;73.02
30682;BME280;17439;48.092;11.842;2023-04-16T06:43:22;95373.63;;;8.82;72.45
30682;BME280;17439;48.092;11.842;2023-04-16T06:45:48;95372.03;;;8.81;73.24
30682;BME280;17439;48.092;11.842;2023-04-16T06:48:15;95369.31;;;8.81;73.37
30682;BME280;17439;48.092;11.842;2023-04-16T06:50:42;95369.84;;;8.83;73.36
30682;BME280;17439;48.092;11.842;2023-04-16T06:53:08;95370.75;;;8.78;71.40
30682;BME280;17439;48.092;11.842;2023-04-16T06:55:35;95376.84;;;8.84;73.42
30682;BME280;17439;48.092;11.842;2023-04-16T06:58:02;95370.34;;;8.85;73.73
30682;BME280;17439;48.092;11.842;2023-04-16T07:00:28;95372.72;;;8.86;73.84
30682;BME280;17439;48.092;11.842;2023-04-16T07:02:55;95365.91;;;8.89;74.29
30682;BME280;17439;48.092;11.842;2023-04-16T07:05:24;95370.72;;;8.92;74.61
30682;BME280;17439;48.092;11.842;2023-04-16T07:07:50;95379.34;;;8.94;74.43
30682;BME280;17439;48.092;11.842;2023-04-16T07:10:17;95375.22;;;8.97;74.02
30682;BME280;17439;48.092;11.842;2023-04-16T07:12:44;95375.09;;;9.02;74.42
30682;BME280;17439;48.092;11.842;2023-04-16T07:15:10;95385.13;;;9.01;73.66
30682;BME280;17439;48.092;11.842;2023-04-16T07:17:37;95376.41;;;9.04;73.19
30682;BME280;17439;48.092;11.842;2023-04-16T07:20:04;95378.63;;;9.02;73.24
30682;BME280;17439;48.092;11.842;2023-04-16T07:22:31;95373.81;;;8.99;72.90
30682;BME280;17439;48.092;11.842;2023-04-16T07:24:58;95377.22;;;9.05;73.46
30682;BME280;17439;48.092;11.842;2023-04-16T07:27:25;95382.44;;;9.01;72.84
30682;BME280;17439;48.092;11.842;2023-04-16T07:29:51;95385.31;;;9.05;73.16
30682;BME280;17439;48.092;11.842;2023-04-16T07:32:20;95383.94;;;9.07;73.16
30682;BME280;17439;48.092;11.842;2023-04-16T07:34:47;95390.84;;;9.14;73.65
30682;BME280;17439;48.092;11.842;2023-04-16T07:37:13;95385.13;;;9.15;72.29
30682;BME280;17439;48.092;11.842;2023-04-16T07:39:40;95390.72;;;9.19;72.61
30682;BME280;17439;48.092;11.842;2023-04-16T07:42:07;95397.13;;;9.23;72.47
30682;BME280;17439;48.092;11.842;2023-04-16T07:44:34;95399.72;;;9.28;73.32
30682;BME280;17439;48.092;11.842;2023-04-16T07:47:00;95403.63;;;9.36;74.06
30682;BME280;17439;48.092;11.842;2023-04-16T07:49:30;95399.78;;;9.37;72.84
30682;BME280;17439;48.092;11.842;2023-04-16T07:51:57;95406.22;;;9.41;73.35
30682;BME280;17439;48.092;11.842;2023-04-16T07:54:24;95411.63;;;9.41;72.82
30682;BME280;17439;48.092;11.842;2023-04-16T07:56:53;95402.72;;;9.40;72.92
30682;BME280;17439;48.092;11.842;2023-04-16T07:59:19;95413.41;;;9.46;73.21
30682;BME280;17439;48.092;11.842;2023-04-16T08:01:51;95410.59;;;9.51;73.57
30682;BME280;17439;48.092;11.842;2023-04-16T08:04:19;95406.84;;;9.60;74.32
30682;BME280;17439;48.092;11.842;2023-04-16T08:06:46;95403.84;;;9.62;74.26
30682;BME280;17439;48.092;11.842;2023-04-16T08:09:12;95414.06;;;9.65;73.12
30682;BME280;17439;48.092;11.842;2023-04-16T08:11:39;95415.06;;;9.69;73.37
30682;BME280;17439;48.092;11.842;2023-04-16T08:14:06;95413.84;;;9.75;73.18
30682;BME280;17439;48.092;11.842;2023-04-16T08:16:32;95414.19;;;9.83;74.07
30682;BME280;17439;48.092;11.842;2023-04-16T08:18:59;95412.81;;;9.85;72.67
30682;BME280;17439;48.092;11.842;2023-04-16T08:21:26;95424.59;;;9.89;71.52
30682;BME280;17439;48.092;11.842;2023-04-16T08:23:53;95422.59;;;9.95;72.38
30682;BME280;17439;48.092;11.842;2023-04-16T08:26:19;95418.16;;;9.99;71.54
30682;BME280;17439;48.092;11.842;2023-04-16T08:28:46;95421.06;;;10.03;72.03
30682;BME280;17439;48.092;11.842;2023-04-16T08:31:13;95423.31;;;10.09;72.36
30682;BME280;17439;48.092;11.842;2023-04-16T08:33:39;95421.91;;;10.12;71.30
30682;BME280;17439;48.092;11.842;2023-04-16T08:36:06;95428.16;;;10.21;72.97
30682;BME280;17439;48.092;11.842;2023-04-16T08:38:33;95428.56;;;10.28;72.38
30682;BME280;17439;48.092;11.842;2023-04-16T08:41:04;95434.03;;;10.37;71.34
30682;BME280;17439;48.092;11.842;2023-04-16T08:43:36;95440.31;;;10.46;71.10
30682;BME280;17439;48.092;11.842;2023-04-16T08:46:07;95442.78;;;10.57;70.68
30682;BME280;17439;48.092;11.842;2023-04-16T08:48:35;95438.69;;;10.68;74.04
30682;BME280;17439;48.092;11.842;2023-04-16T08:51:02;95448.75;;;10.67;68.63
30682;BME280;17439;48.092;11.842;2023-04-16T08:53:35;95450.56;;;10.81;70.42
30682;BME280;17439;48.092;11.842;2023-04-16T08:56:08;95447.56;;;10.91;69.89
30682;BME280;17439;48.092;11.842;2023-04-16T08:58:37;95448.59;;;11.04;72.61
30682;BME280;17439;48.092;11.842;2023-04-16T09:01:04;95446.53;;;11.10;72.13
30682;BME280;17439;48.092;11.842;2023-04-16T09:03:31;95447.19;;;11.15;71.70
30682;BME280;17439;48.092;11.842;2023-04-16T09:06:03;95445.59;;;11.23;71.55
30682;BME280;17439;48.092;11.842;2023-04-16T09:08:30;95447.03;;;11.20;65.10
30682;BME280;17439;48.092;11.842;2023-04-16T09:10:57;95446.78;;;11.39;71.41
30682;BME280;17439;48.092;11.842;2023-04-16T09:13:24;95448.38;;;11.49;70.99
30682;BME280;17439;48.092;11.842;2023-04-16T09:15:52;95446.81;;;11.57;71.21
30682;BME280;17439;48.092;11.842;2023-04-16T09:18:19;95450.34;;;11.66;71.68
30682;BME280;17439;48.092;11.842;2023-04-16T09:20:47;95446.84;;;11.74;71.48
30682;BME280;17439;48.092;11.842;2023-04-16T09:23:14;95452.56;;;11.82;71.24
30682;BME280;17439;48.092;11.842;2023-04-16T09:25:41;95447.16;;;11.90;71.26
30682;BME280;17439;48.092;11.842;2023-04-16T09:28:11;95447.34;;;11.94;70.31
30682;BME280;17439;48.092;11.842;2023-04-16T09:30:37;95446.38;;;11.98;70.67
30682;BME280;17439;48.092;11.842;2023-04-16T09:33:18;95451.19;;;12.02;65.39
30682;BME280;17439;48.092;11.842;2023-04-16T09:35:47;95456.13;;;12.08;70.91
30682;BME280;17439;48.092;11.842;2023-04-16T09:38:14;95446.56;;;12.11;70.53
30682;BME280;17439;48.092;11.842;2023-04-16T09:40:41;95450.22;;;12.15;70.86
30682;BME280;17439;48.092;11.842;2023-04-16T09:43:12;95459.50;;;12.14;63.69
30682;BME280;17439;48.092;11.842;2023-04-16T09:45:50;95464.31;;;12.17;67.23
30682;BME280;17439;48.092;11.842;2023-04-16T09:48:30;95459.34;;;12.19;63.53
30682;BME280;17439;48.092;11.842;2023-04-16T09:50:58;95455.81;;;12.27;71.14
30682;BME280;17439;48.092;11.842;2023-04-16T09:55:55;95459.00;;;12.38;70.09
30682;BME280;17439;48.092;11.842;2023-04-16T09:58:22;95456.75;;;12.49;71.00
30682;BME280;17439;48.092;11.842;2023-04-16T10:01:07;95460.41;;;12.53;65.74
30682;BME280;17439;48.092;11.842;2023-04-16T10:03:35;95464.88;;;12.58;70.47
30682;BME280;17439;48.092;11.842;2023-04-16T10:06:06;95466.81;;;12.57;63.96
30682;BME280;17439;48.092;11.842;2023-04-16T10:08:33;95462.31;;;12.61;69.90
30682;BME280;17439;48.092;11.842;2023-04-16T10:11:01;95462.81;;;12.63;70.19
30682;BME280;17439;48.092;11.842;2023-04-16T10:13:27;95467.28;;;12.68;70.87
30682;BME280;17439;48.092;11.842;2023-04-16T10:15:55;95465.16;;;12.74;71.28
30682;BME280;17439;48.092;11.842;2023-04-16T10:18:22;95467.56;;;12.75;71.18
30682;BME280;17439;48.092;11.842;2023-04-16T10:20:49;95466.59;;;12.80;71.34
30682;BME280;17439;48.092;11.842;2023-04-16T10:23:18;95465.63;;;12.84;70.30
30682;BME280;17439;48.092;11.842;2023-04-16T10:25:47;95460.00;;;12.89;69.17
30682;BME280;17439;48.092;11.842;2023-04-16T10:28:15;95467.66;;;12.96;69.41
30682;BME280;17439;48.092;11.842;2023-04-16T10:30:47;95460.78;;;12.99;64.85
30682;BME280;17439;48.092;11.842;2023-04-16T10:33:15;95464.25;;;13.08;70.03
30682;BME280;17439;48.092;11.842;2023-04-16T10:35:44;95464.84;;;13.14;68.51
30682;BME280;17439;48.092;11.842;2023-04-16T10:38:25;95466.34;;;13.11;67.32
30682;BME280;17439;48.092;11.842;2023-04-16T10:40:59;95463.59;;;13.11;59.38
30682;BME280;17439;48.092;11.842;2023-04-16T10:43:28;95458.44;;;13.18;68.75
30682;BME280;17439;48.092;11.842;2023-04-16T10:45:55;95460.19;;;13.23;67.93
30682;BME280;17439;48.092;11.842;2023-04-16T10:48:23;95468.66;;;13.30;66.28
30682;BME280;17439;48.092;11.842;2023-04-16T10:50:55;95465.13;;;13.38;64.52
30682;BME280;17439;48.092;11.842;2023-04-16T10:53:24;95481.06;;;13.49;67.02
30682;BME280;17439;48.092;11.842;2023-04-16T10:56:43;95470.16;;;13.49;58.13
30682;BME280;17439;48.092;11.842;2023-04-16T10:58:44;95464.72;;;13.49;66.63
30682;BME280;17439;48.092;11.842;2023-04-16T11:01:12;95468.41;;;13.53;66.87
30682;BME280;17439;48.092;11.842;2023-04-16T11:03:41;95469.69;;;13.55;67.39
30682;BME280;17439;48.092;11.842;2023-04-16T11:06:11;95471.06;;;13.61;66.66
30682;BME280;17439;48.092;11.842;2023-04-16T11:08:39;95468.97;;;13.67;68.00
30682;BME280;17439;48.092;11.842;2023-04-16T11:11:21;95467.22;;;13.63;64.82
30682;BME280;17439;48.092;11.842;2023-04-16T11:13:47;95472.00;;;13.66;67.13
30682;BME280;17439;48.092;11.842;2023-04-16T11:16:15;95467.88;;;13.59;65.42
30682;BME280;17439;48.092;11.842;2023-04-16T11:18:44;95476.50;;;13.61;66.29
30682;BME280;17439;48.092;11.842;2023-04-16T11:21:17;95470.28;;;13.61;66.33
30682;BME280;17439;48.092;11.842;2023-04-16T11:23:49;95473.44;;;13.63;62.62
30682;BME280;17439;48.092;11.842;2023-04-16T11:26:27;95473.28;;;13.68;60.12
30682;BME280;17439;48.092;11.842;2023-04-16T11:28:54;95463.09;;;13.77;67.81
30682;BME280;17439;48.092;11.842;2023-04-16T11:31:22;95474.16;;;13.81;65.79
30682;BME280;17439;48.092;11.842;2023-04-16T11:33:49;95476.69;;;13.86;66.37
30682;BME280;17439;48.092;11.842;2023-04-16T11:36:16;95473.63;;;13.88;65.87
30682;BME280;17439;48.092;11.842;2023-04-16T11:38:42;95483.59;;;13.84;65.10
30682;BME280;17439;48.092;11.842;2023-04-16T11:41:10;95485.72;;;13.78;65.06
30682;BME280;17439;48.092;11.842;2023-04-16T11:43:36;95490.09;;;13.70;64.86
30682;BME280;17439;48.092;11.842;2023-04-16T11:46:05;95484.84;;;13.65;64.64
30682;BME280;17439;48.092;11.842;2023-04-16T11:48:53;95492.59;;;13.54;62.06
30682;BME280;17439;48.092;11.842;2023-04-16T11:51:20;95491.16;;;13.48;64.82
30682;BME280;17439;48.092;11.842;2023-04-16T11:53:51;95489.09;;;13.45;65.03
30682;BME280;17439;48.092;11.842;2023-04-16T11:56:27;95494.75;;;13.40;59.47
30682;BME280;17439;48.092;11.842;2023-04-16T11:59:14;95490.28;;;13.35;60.14
30682;BME280;17439;48.092;11.842;2023-04-16T12:01:49;95498.59;;;13.30;58.09
30682;BME280;17439;48.092;11.842;2023-04-16T12:04:18;95502.59;;;13.33;64.84
30682;BME280;17439;48.092;11.842;2023-04-16T12:07:10;95491.09;;;13.27;59.54
30682;BME280;17439;48.092;11.842;2023-04-16T12:09:38;95497.63;;;13.26;64.38
30682;BME280;17439;48.092;11.842;2023-04-16T12:12:27;95500.03;;;13.28;60.14
30682;BME280;17439;48.092;11.842;2023-04-16T12:14:54;95491.53;;;13.29;65.32
30682;BME280;17439;48.092;11.842;2023-04-16T12:17:22;95495.72;;;13.35;66.55
30682;BME280;17439;48.092;11.842;2023-04-16T12:22:29;95489.22;;;13.49;62.90
30682;BME280;17439;48.092;11.842;2023-04-16T12:25:06;95490.84;;;13.50;61.50
30682;BME280;17439;48.092;11.842;2023-04-16T12:27:49;95484.94;;;13.48;55.70
30682;BME280;17439;48.092;11.842;2023-04-16T12:30:21;95490.31;;;13.56;66.77
30682;BME280;17439;48.092;11.842;2023-04-16T12:32:49;95489.78;;;13.63;68.23
30682;BME280;17439;48.092;11.842;2023-04-16T12:35:30;95488.69;;;13.64;60.43
30682;BME280;17439;48.092;11.842;2023-04-16T12:37:57;95498.91;;;13.67;66.43
30682;BME280;17439;48.092;11.842;2023-04-16T12:40:24;95487.56;;;13.65;65.36
30682;BME280;17439;48.092;11.842;2023-04-16T12:42:51;95491.41;;;13.64;65.72
30682;BME280;17439;48.092;11.842;2023-04-16T12:45:17;95498.97;;;13.58;65.18
30682;BME280;17439;48.092;11.842;2023-04-16T12:47:45;95497.91;;;13.51;65.10
30682;BME280;17439;48.092;11.842;2023-04-16T12:50:12;95500.31;;;13.43;65.78
30682;BME280;17439;48.092;11.842;2023-04-16T12:52:38;95495.38;;;13.37;65.73
30682;BME280;17439;48.092;11.842;2023-04-16T12:55:05;95500.81;;;13.28;65.07
30682;BME280;17439;48.092;11.842;2023-04-16T12:57:32;95504.88;;;13.22;65.92
30682;BME280;17439;48.092;11.842;2023-04-16T12:59:59;95502.63;;;13.15;66.00
30682;BME280;17439;48.092;11.842;2023-04-16T13:02:25;95496.59;;;13.10;65.73
30682;BME280;17439;48.092;11.842;2023-04-16T13:04:53;95502.22;;;13.04;66.21
30682;BME280;17439;48.092;11.842;2023-04-16T13:07:20;95502.38;;;12.99;66.54